EST,Max TemperatureF,Mean TemperatureF,Min TemperatureF,Max Dew PointF,MeanDew PointF,Min DewpointF,Max Humidity, Mean Humidity, Min Humidity, Max Sea Level PressureIn, Mean Sea Level PressureIn, Min Sea Level PressureIn, Max VisibilityMiles, Mean VisibilityMiles, Min VisibilityMiles, Max Wind SpeedMPH, Mean Wind SpeedMPH, Max Gust SpeedMPH,PrecipitationIn, CloudCover, Events, WindDirDegrees
2014-2-1,52,36,21,43,29,16,98,77,23,30.25,30.19,30.14,10,8,2,7,1,,0.00,5,Rain,127
2014-2-2,66,54,42,50,46,42,99,85,56,30.16,30.08,30.01,10,6,0,9,2,,0.00,4,Fog,182
2014-2-3,73,60,46,63,51,36,97,77,47,30.23,30.02,29.90,10,9,2,13,5,22,0.01,5,Rain,183
2014-2-4,44,42,38,39,37,34,98,88,70,30.37,30.25,30.10,10,6,1,9,6,,0.19,8,Rain,30
2014-2-5,60,49,38,51,41,29,98,84,51,30.12,29.94,29.82,10,6,1,16,2,22,0.05,6,Rain,271
2014-2-6,44,38,32,31,25,20,79,58,41,30.34,30.25,30.09,10,10,10,13,6,18,0.00,2,,349
2014-2-7,52,39,26,34,28,22,94,73,36,30.36,30.29,30.24,10,9,7,5,0,,0.00,1,,275
2014-2-8,55,43,32,37,33,30,95,77,42,30.27,30.19,30.11,10,9,7,5,0,,0.00,1,,44
2014-2-9,61,44,28,40,35,27,94,71,37,30.17,30.08,29.96,10,8,4,13,2,16,0.00,2,,188
2014-2-10,48,40,32,37,32,28,96,81,47,30.24,30.14,30.03,10,8,4,10,2,16,0.00,5,Rain,22
2014-2-11,35,32,30,35,31,27,97,92,80,30.38,30.30,30.21,10,4,0,9,2,,0.05,8,Snow,24
2014-2-12,30,28,25,28,24,19,92,85,70,30.39,30.20,29.79,10,5,0,13,4,20,0.48,8,Snow,11
2014-2-13,40,34,29,36,31,28,98,90,70,29.79,29.62,29.52,10,6,1,8,4,,0.27,6,Rain-Snow,304
2014-2-14,55,43,31,32,28,25,87,61,31,29.84,29.78,29.71,10,10,10,9,4,,0.00,0,,200
2014-2-15,49,38,28,40,27,13,97,62,24,30.07,29.80,29.57,10,9,2,22,5,30,0.12,4,Rain,281
2014-2-16,55,43,31,32,23,18,89,56,26,30.15,30.09,30.04,10,10,10,9,2,,0.00,3,,180
2014-2-17,50,37,25,29,25,23,92,64,37,30.36,30.26,30.15,10,10,10,9,2,,0.00,1,,83
2014-2-18,65,48,31,40,33,20,94,61,18,30.24,30.17,30.08,10,10,7,7,2,,0.00,2,Rain,215
2014-2-19,76,63,50,58,53,39,97,72,43,30.08,30.00,29.92,10,9,3,18,6,28,0.29,4,Rain,197
2014-2-20,79,65,51,61,53,47,97,68,32,30.16,30.08,29.99,10,8,2,16,4,23,0.00,1,,171
2014-2-21,70,55,39,62,57,39,98,82,61,30.04,29.91,29.83,10,9,0,15,9,33,0.50,4,Fog-Rain,192
2014-2-22,65,48,32,40,32,18,99,67,17,30.21,30.13,30.05,10,10,4,8,1,,0.00,0,,36
2014-2-23,68,50,32,44,36,30,96,66,27,30.12,30.02,29.91,10,10,10,9,2,16,0.00,0,,185
2014-2-24,65,50,35,43,34,24,97,64,21,30.13,30.03,29.89,10,10,5,13,2,17,0.00,0,,342
2014-2-25,62,46,31,34,29,24,92,55,25,30.13,30.00,29.91,10,10,10,9,1,10,0.00,1,,333
2014-2-26,49,39,29,30,25,18,87,60,30,29.96,29.87,29.78,10,10,10,10,2,,0.00,4,,15
2014-2-27,57,40,22,26,20,8,91,56,15,29.99,29.86,29.79,10,10,10,9,2,20,0.00,1,,237
2014-2-28,51,38,24,24,15,9,76,42,20,30.28,30.19,29.99,10,10,10,12,3,16,0.00,1,,39